Time;durP1;ratioP1;P1;durP2;ratioP2;P2;SDS_P1;SDS_P2;PMS_P1;PMS_P2;Temp;Humidity;BMP_temperature;BMP_pressure;BME280_temperature;BME280_humidity;BME280_pressure;Samples;Min_cycle;Max_cycle;Signal;HPM_P1;HPM_P2
2021/10/09 00:08:22;;;;;;;1.05;0.30;;;18.60;35.30;;;;;;20708615;28;80674;-69
2021/10/09 00:18:25;;;;;;;1.73;0.47;;;18.40;35.10;;;;;;20723280;28;80768;-71
2021/10/09 00:28:27;;;;;;;3.08;0.45;;;18.50;35.00;;;;;;20725944;28;79945;-69
2021/10/09 00:38:30;;;;;;;;;;;18.40;35.90;;;;;;20715273;28;80727;-73
2021/10/09 00:48:33;;;;;;;1.55;0.30;;;18.20;36.20;;;;;;20741549;28;83052;-70
2021/10/09 00:58:53;;;;;;;2.78;0.80;;;18.00;35.80;;;;;;20981549;27;75086;-71
2021/10/09 01:08:54;;;;;;;5.88;0.75;;;18.00;36.30;;;;;;20942544;27;79946;-71
2021/10/09 01:18:58;;;;;;;3.17;0.50;;;17.90;37.00;;;;;;20943390;27;81871;-71
2021/10/09 01:29:00;;;;;;;2.65;0.40;;;17.70;37.20;;;;;;20947934;27;81813;-72
2021/10/09 01:39:06;;;;;;;1.52;0.40;;;17.60;37.00;;;;;;20948668;27;80166;-70
2021/10/09 01:49:15;;;;;;;1.50;0.55;;;17.50;37.60;;;;;;20940820;27;80823;-72
2021/10/09 01:59:27;;;;;;;6.53;0.90;;;17.40;38.30;;;;;;20948508;27;80691;-68
2021/10/09 02:09:33;;;;;;;1.90;0.40;;;17.10;39.00;;;;;;20897777;27;80698;-70
2021/10/09 02:30:00;;;;;;;;;;;16.80;40.30;;;;;;20894632;27;80743;-69
2021/10/09 02:40:04;;;;;;;3.00;0.30;;;16.50;40.70;;;;;;20913945;27;80932;-72
2021/10/09 02:50:13;;;;;;;0.90;0.43;;;16.40;41.00;;;;;;20891088;28;79881;-72
2021/10/09 03:00:21;;;;;;;3.17;0.60;;;16.30;41.90;;;;;;20889701;28;81119;-72
2021/10/09 03:10:33;;;;;;;4.53;0.90;;;16.00;42.60;;;;;;20888834;28;79947;-70
2021/10/09 03:20:40;;;;;;;1.42;0.40;;;15.90;43.50;;;;;;20886740;27;81538;-72
2021/10/09 03:30:43;;;;;;;2.28;0.60;;;15.70;44.00;;;;;;20887123;28;80131;-73
2021/10/09 03:40:52;;;;;;;2.25;0.20;;;15.60;43.70;;;;;;20888390;27;81039;-72
2021/10/09 04:01:13;;;;;;;0.85;0.32;;;15.60;42.70;;;;;;20887231;27;80733;-70
2021/10/09 04:11:17;;;;;;;1.50;0.38;;;15.70;41.90;;;;;;20880834;27;80933;-68
2021/10/09 04:21:20;;;;;;;3.75;0.90;;;15.60;42.10;;;;;;20857033;27;80656;-70
2021/10/09 04:31:25;;;;;;;3.38;0.47;;;15.50;43.00;;;;;;20801935;28;81173;-69
2021/10/09 04:41:28;;;;;;;1.83;0.50;;;15.30;43.90;;;;;;20800342;28;82086;-70
2021/10/09 04:51:34;;;;;;;2.25;0.60;;;15.10;44.50;;;;;;20800487;28;79911;-69
2021/10/09 05:01:37;;;;;;;2.30;0.70;;;15.00;45.20;;;;;;20798377;28;81746;-69
2021/10/09 05:11:38;;;;;;;4.80;0.68;;;14.90;45.50;;;;;;20857625;28;82374;-68
2021/10/09 05:21:42;;;;;;;6.75;0.60;;;14.80;46.30;;;;;;20863034;28;81249;-71
2021/10/09 05:31:47;;;;;;;2.53;0.57;;;14.60;46.10;;;;;;20870328;27;82185;-71
2021/10/09 05:41:49;;;;;;;2.25;0.20;;;14.60;45.60;;;;;;20877026;27;81163;-70
2021/10/09 05:51:57;;;;;;;1.80;0.77;;;14.60;45.20;;;;;;20884331;27;81317;-70
2021/10/09 07:04:05;;;;;;;4.38;1.10;;;14.10;47.90;;;;;;20878053;27;81344;-67
2021/10/09 07:14:08;;;;;;;6.82;1.55;;;14.20;48.00;;;;;;20876136;27;81053;-69
2021/10/09 07:24:10;;;;;;;5.63;0.93;;;14.40;47.90;;;;;;20878151;27;80186;-70
2021/10/09 07:34:14;;;;;;;8.82;1.42;;;14.60;47.30;;;;;;20875508;28;80154;-69
2021/10/09 07:44:21;;;;;;;7.45;1.40;;;14.90;46.70;;;;;;20879771;27;81715;-69
2021/10/09 07:54:26;;;;;;;8.18;1.15;;;15.00;46.60;;;;;;20870833;28;81146;-62
2021/10/09 08:04:32;;;;;;;6.22;1.50;;;15.40;46.10;;;;;;20870787;27;81851;-70
2021/10/09 08:14:53;;;;;;;6.85;1.70;;;15.90;45.30;;;;;;20873038;28;81247;-65
2021/10/09 08:35:38;;;;;;;5.50;2.08;;;16.90;44.20;;;;;;20876385;27;80464;-62
2021/10/09 08:45:46;;;;;;;6.47;1.73;;;17.70;42.80;;;;;;20876884;27;82184;-63
2021/10/09 08:55:53;;;;;;;6.57;1.50;;;18.00;42.80;;;;;;20869914;27;81860;-61
2021/10/09 09:37:43;;;;;;;5.05;2.03;;;19.90;44.40;;;;;;20882629;28;81300;-60
2021/10/09 09:47:47;;;;;;;7.80;2.65;;;23.00;40.10;;;;;;20885228;28;81240;-62
2021/10/09 09:57:52;;;;;;;8.55;2.80;;;24.90;37.00;;;;;;20886895;27;80969;-63
2021/10/09 10:07:59;;;;;;;8.68;2.78;;;27.10;34.40;;;;;;20892323;28;81304;-61
2021/10/09 10:18:02;;;;;;;5.85;2.85;;;29.40;31.00;;;;;;20885725;27;80803;-62
2021/10/09 10:28:19;;;;;;;7.10;2.75;;;31.40;28.80;;;;;;20880305;27;81605;-62
2021/10/09 10:38:22;;;;;;;10.10;2.75;;;33.80;25.80;;;;;;20887091;28;80802;-63
2021/10/09 10:48:50;;;;;;;8.73;3.20;;;35.80;24.00;;;;;;20873416;28;81624;-62
2021/10/09 10:59:30;;;;;;;12.02;3.22;;;37.40;22.80;;;;;;20804672;28;81929;-64
2021/10/09 11:09:38;;;;;;;8.25;3.65;;;38.30;22.10;;;;;;20796935;28;81805;-63
2021/10/09 11:19:46;;;;;;;5.82;2.53;;;33.10;27.60;;;;;;20803715;28;82061;-63
2021/10/09 11:30:09;;;;;;;4.18;2.40;;;35.50;25.00;;;;;;20806632;28;80702;-62
2021/10/09 11:40:12;;;;;;;5.72;2.33;;;35.00;25.70;;;;;;20805766;28;80779;-62
2021/10/09 12:00:37;;;;;;;4.83;2.00;;;34.50;25.60;;;;;;20806578;28;81154;-62
2021/10/09 12:10:39;;;;;;;4.93;2.35;;;32.10;28.60;;;;;;20805774;28;80803;-63
2021/10/09 12:20:42;;;;;;;5.05;2.53;;;33.90;26.40;;;;;;20804706;28;80245;-65
2021/10/09 12:30:46;;;;;;;9.70;2.80;;;32.50;27.80;;;;;;20804751;28;81783;-62
2021/10/09 12:40:49;;;;;;;6.15;2.58;;;35.00;24.60;;;;;;20801985;28;80655;-62
2021/10/09 12:50:53;;;;;;;6.85;2.13;;;32.60;27.30;;;;;;20801132;28;80867;-63
2021/10/09 13:00:55;;;;;;;4.85;1.38;;;37.30;22.30;;;;;;20803497;28;80854;-63
2021/10/09 13:11:00;;;;;;;6.13;2.80;;;38.00;21.00;;;;;;20813699;28;81583;-64
2021/10/09 13:21:02;;;;;;;5.30;2.33;;;37.50;21.90;;;;;;20848967;27;81783;-62
2021/10/09 13:31:04;;;;;;;2.72;1.50;;;33.40;25.50;;;;;;20855033;27;80725;-63
2021/10/09 13:41:06;;;;;;;6.43;1.67;;;33.30;25.40;;;;;;20829899;28;81598;-63
2021/10/09 13:51:13;;;;;;;4.57;1.27;;;31.80;25.90;;;;;;20877792;28;80769;-63
2021/10/09 14:01:16;;;;;;;5.78;1.33;;;33.90;23.70;;;;;;20820793;27;81839;-72
2021/10/09 14:11:20;;;;;;;3.53;1.00;;;34.50;22.70;;;;;;20887655;28;81959;-75
2021/10/09 14:21:23;;;;;;;2.83;1.27;;;39.90;18.40;;;;;;20884251;27;81081;-76
2021/10/09 14:31:25;;;;;;;2.45;1.30;;;37.60;19.60;;;;;;20879218;28;80955;-81
2021/10/09 14:41:28;;;;;;;2.03;1.13;;;33.40;23.20;;;;;;20892131;27;81033;-74
2021/10/09 14:51:39;;;;;;;3.15;2.03;;;34.40;21.10;;;;;;20892473;28;82073;-76
2021/10/09 15:22:25;;;;;;;;;;;31.90;24.10;;;;;;20835928;28;81904;-71
2021/10/09 15:32:27;;;;;;;5.55;2.47;;;33.20;21.50;;;;;;20861806;28;80580;-70
2021/10/09 15:42:30;;;;;;;4.40;1.35;;;32.40;22.70;;;;;;20808197;28;80055;-70
2021/10/09 15:52:33;;;;;;;2.55;1.08;;;32.20;22.90;;;;;;20800539;28;81579;-72
2021/10/09 16:02:37;;;;;;;2.97;1.70;;;31.40;23.00;;;;;;20803936;28;80709;-64
2021/10/09 16:12:41;;;;;;;4.07;1.15;;;29.00;25.80;;;;;;20796541;28;81941;-62
2021/10/09 16:22:47;;;;;;;2.95;1.05;;;27.60;27.80;;;;;;20803221;28;80077;-68
2021/10/09 16:32:50;;;;;;;4.72;1.83;;;26.90;28.80;;;;;;20822272;28;79930;-63
2021/10/09 16:42:53;;;;;;;4.75;1.75;;;26.30;30.10;;;;;;20876370;28;79998;-71
2021/10/09 16:52:58;;;;;;;7.55;1.98;;;25.70;30.60;;;;;;20880463;28;80746;-62
2021/10/09 17:03:00;;;;;;;9.77;2.13;;;25.30;32.30;;;;;;20850247;28;81731;-66
2021/10/09 17:13:03;;;;;;;3.25;1.52;;;24.80;33.40;;;;;;20801722;28;80772;-62
2021/10/09 17:23:05;;;;;;;4.55;1.90;;;24.40;32.70;;;;;;20876821;28;80687;-65
2021/10/09 17:33:07;;;;;;;3.78;1.60;;;23.90;33.80;;;;;;20871983;27;80767;-70
2021/10/09 17:43:09;;;;;;;3.90;1.50;;;23.40;35.20;;;;;;20875070;27;80648;-65
2021/10/09 17:53:12;;;;;;;8.55;2.97;;;22.90;35.90;;;;;;20895907;27;81836;-70
2021/10/09 18:03:14;;;;;;;7.90;3.22;;;22.60;36.80;;;;;;20895191;27;82187;-71
2021/10/09 18:13:17;;;;;;;9.30;4.00;;;22.30;37.70;;;;;;20875619;28;81905;-71
2021/10/09 18:23:19;;;;;;;11.52;7.00;;;22.00;38.40;;;;;;20809727;28;79998;-72
2021/10/09 18:33:22;;;;;;;14.23;4.93;;;21.80;39.00;;;;;;20833224;28;80667;-70
2021/10/09 18:43:25;;;;;;;12.25;4.28;;;21.50;39.80;;;;;;20809257;28;81598;-70
2021/10/09 18:53:27;;;;;;;13.93;5.60;;;21.30;40.50;;;;;;20863823;28;81806;-73
2021/10/09 19:03:29;;;;;;;13.30;6.50;;;21.10;41.50;;;;;;20885181;28;81890;-70
2021/10/09 19:13:31;;;;;;;13.95;6.43;;;20.90;42.10;;;;;;20844770;28;81888;-71
2021/10/09 19:23:35;;;;;;;18.17;6.38;;;20.70;43.10;;;;;;20858193;27;81775;-73
2021/10/09 19:33:37;;;;;;;15.77;5.00;;;20.60;43.20;;;;;;20889791;27;80133;-73
2021/10/09 19:43:41;;;;;;;8.23;3.85;;;20.50;43.30;;;;;;20890414;27;82253;-72
2021/10/09 19:53:49;;;;;;;11.10;4.43;;;20.40;43.50;;;;;;20889924;27;84057;-72
2021/10/09 20:03:53;;;;;;;11.35;3.28;;;20.20;43.90;;;;;;20887568;27;80463;-72
2021/10/09 20:14:01;;;;;;;13.63;4.13;;;19.90;43.90;;;;;;20852228;27;81308;-73
2021/10/09 20:24:03;;;;;;;11.10;4.53;;;19.70;44.50;;;;;;20848939;28;80680;-73
2021/10/09 20:34:05;;;;;;;;;;;19.50;44.50;;;;;;20875379;28;81917;-73
2021/10/09 20:44:08;;;;;;;;;;;19.40;44.30;;;;;;20903168;28;81114;-72
2021/10/09 20:54:11;;;;;;;7.13;3.23;;;19.10;44.90;;;;;;20904971;28;76475;-71
2021/10/09 21:04:13;;;;;;;;;;;19.00;44.70;;;;;;20885943;27;80141;-73
2021/10/09 21:14:28;;;;;;;5.07;2.17;;;18.80;44.90;;;;;;20917597;27;81854;-72
2021/10/09 21:24:54;;;;;;;9.63;3.22;;;18.60;45.10;;;;;;20886748;28;80001;-71
2021/10/09 21:34:57;;;;;;;6.65;2.65;;;18.40;45.60;;;;;;20895723;28;81868;-72
2021/10/09 21:44:59;;;;;;;9.93;2.58;;;18.30;46.10;;;;;;20896242;28;80622;-73
2021/10/09 21:55:03;;;;;;;10.13;3.93;;;18.10;46.50;;;;;;20894352;28;81890;-72
2021/10/09 22:36:09;;;;;;;20.77;8.10;;;17.50;48.30;;;;;;20893463;27;80785;-72
2021/10/09 22:46:12;;;;;;;13.70;6.33;;;17.40;48.20;;;;;;20891993;28;80942;-71
2021/10/09 22:56:14;;;;;;;12.35;3.20;;;17.40;48.10;;;;;;20891591;27;80061;-72
2021/10/09 23:06:16;;;;;;;11.70;3.20;;;17.50;47.00;;;;;;20861485;27;80916;-71
2021/10/09 23:16:18;;;;;;;7.37;2.80;;;17.50;46.90;;;;;;20815190;27;80704;-71
2021/10/09 23:26:21;;;;;;;6.32;2.65;;;17.40;47.30;;;;;;20807966;28;81072;-71
2021/10/09 23:36:24;;;;;;;10.10;1.70;;;17.30;47.00;;;;;;20804675;28;81185;-72
2021/10/09 23:46:26;;;;;;;;;;;17.30;46.60;;;;;;20805179;28;80997;-72
2021/10/09 23:56:29;;;;;;;3.72;1.75;;;17.20;46.30;;;;;;20824709;28;80952;-71
